sensor_id;sensor_type;location;lat;lon;timestamp;temperature;humidity
21259;DHT22;10787;53.364;-1.480;2024-03-08T00:00:30;5.60;99.90
21259;DHT22;10787;53.364;-1.480;2024-03-08T00:03:17;5.60;99.90
21259;DHT22;10787;53.364;-1.480;2024-03-08T00:06:01;5.70;99.90
21259;DHT22;10787;53.364;-1.480;2024-03-08T00:08:45;5.70;99.90
21259;DHT22;10787;53.364;-1.480;2024-03-08T00:11:29;5.60;99.90
21259;DHT22;10787;53.364;-1.480;2024-03-08T00:14:15;5.70;99.90
21259;DHT22;10787;53.364;-1.480;2024-03-08T00:17:00;5.60;99.90
21259;DHT22;10787;53.364;-1.480;2024-03-08T00:19:44;5.70;99.90
21259;DHT22;10787;53.364;-1.480;2024-03-08T00:22:28;5.70;99.90
21259;DHT22;10787;53.364;-1.480;2024-03-08T00:25:15;5.70;99.90
21259;DHT22;10787;53.364;-1.480;2024-03-08T00:28:00;5.70;99.90
21259;DHT22;10787;53.364;-1.480;2024-03-08T00:30:44;5.60;99.90
21259;DHT22;10787;53.364;-1.480;2024-03-08T00:33:30;5.60;99.90
21259;DHT22;10787;53.364;-1.480;2024-03-08T00:36:14;5.60;99.90
21259;DHT22;10787;53.364;-1.480;2024-03-08T00:38:58;5.60;99.90
21259;DHT22;10787;53.364;-1.480;2024-03-08T00:41:44;5.60;99.90
21259;DHT22;10787;53.364;-1.480;2024-03-08T00:44:29;5.60;99.90
21259;DHT22;10787;53.364;-1.480;2024-03-08T00:47:13;5.60;99.90
21259;DHT22;10787;53.364;-1.480;2024-03-08T00:49:57;5.50;99.90
21259;DHT22;10787;53.364;-1.480;2024-03-08T00:52:42;5.50;99.90
21259;DHT22;10787;53.364;-1.480;2024-03-08T00:55:26;5.50;99.90
21259;DHT22;10787;53.364;-1.480;2024-03-08T00:58:11;5.50;99.90
21259;DHT22;10787;53.364;-1.480;2024-03-08T01:00:56;5.50;99.90
21259;DHT22;10787;53.364;-1.480;2024-03-08T01:03:43;5.50;99.90
21259;DHT22;10787;53.364;-1.480;2024-03-08T01:06:27;5.50;99.90
21259;DHT22;10787;53.364;-1.480;2024-03-08T01:09:12;5.50;99.90
21259;DHT22;10787;53.364;-1.480;2024-03-08T01:11:57;5.50;99.90
21259;DHT22;10787;53.364;-1.480;2024-03-08T01:14:44;5.50;99.90
21259;DHT22;10787;53.364;-1.480;2024-03-08T01:17:29;5.50;99.90
21259;DHT22;10787;53.364;-1.480;2024-03-08T01:20:13;5.50;99.90
21259;DHT22;10787;53.364;-1.480;2024-03-08T01:22:57;5.50;99.90
21259;DHT22;10787;53.364;-1.480;2024-03-08T01:25:44;5.60;99.90
21259;DHT22;10787;53.364;-1.480;2024-03-08T01:28:28;5.50;99.90
21259;DHT22;10787;53.364;-1.480;2024-03-08T01:31:12;5.60;99.90
21259;DHT22;10787;53.364;-1.480;2024-03-08T01:33:58;5.60;99.90
21259;DHT22;10787;53.364;-1.480;2024-03-08T01:36:43;5.60;99.90
21259;DHT22;10787;53.364;-1.480;2024-03-08T01:39:27;5.60;99.90
21259;DHT22;10787;53.364;-1.480;2024-03-08T01:42:12;5.60;99.90
21259;DHT22;10787;53.364;-1.480;2024-03-08T01:44:59;5.60;99.90
21259;DHT22;10787;53.364;-1.480;2024-03-08T01:47:43;5.60;99.90
21259;DHT22;10787;53.364;-1.480;2024-03-08T01:50:28;5.60;99.90
21259;DHT22;10787;53.364;-1.480;2024-03-08T01:53:13;5.60;99.90
21259;DHT22;10787;53.364;-1.480;2024-03-08T01:55:59;5.60;99.90
21259;DHT22;10787;53.364;-1.480;2024-03-08T01:58:45;5.60;99.90
21259;DHT22;10787;53.364;-1.480;2024-03-08T02:01:30;5.60;99.90
21259;DHT22;10787;53.364;-1.480;2024-03-08T02:04:15;5.60;99.90
21259;DHT22;10787;53.364;-1.480;2024-03-08T02:07:00;5.60;99.90
21259;DHT22;10787;53.364;-1.480;2024-03-08T02:09:45;5.60;99.90
21259;DHT22;10787;53.364;-1.480;2024-03-08T02:12:32;5.70;99.90
21259;DHT22;10787;53.364;-1.480;2024-03-08T02:15:17;5.70;99.90
21259;DHT22;10787;53.364;-1.480;2024-03-08T02:18:02;5.70;99.90
21259;DHT22;10787;53.364;-1.480;2024-03-08T02:20:51;5.70;99.90
21259;DHT22;10787;53.364;-1.480;2024-03-08T02:23:36;5.70;99.90
21259;DHT22;10787;53.364;-1.480;2024-03-08T02:26:21;5.70;99.90
21259;DHT22;10787;53.364;-1.480;2024-03-08T02:29:05;5.70;99.90
21259;DHT22;10787;53.364;-1.480;2024-03-08T02:31:51;5.70;99.90
21259;DHT22;10787;53.364;-1.480;2024-03-08T02:34:35;5.70;99.90
21259;DHT22;10787;53.364;-1.480;2024-03-08T02:37:20;5.70;99.90
21259;DHT22;10787;53.364;-1.480;2024-03-08T02:40:04;5.80;99.90
21259;DHT22;10787;53.364;-1.480;2024-03-08T02:42:49;5.80;99.90
21259;DHT22;10787;53.364;-1.480;2024-03-08T02:45:33;5.80;99.90
21259;DHT22;10787;53.364;-1.480;2024-03-08T02:48:19;5.80;99.90
21259;DHT22;10787;53.364;-1.480;2024-03-08T02:51:03;5.80;99.90
21259;DHT22;10787;53.364;-1.480;2024-03-08T02:53:47;5.80;99.90
21259;DHT22;10787;53.364;-1.480;2024-03-08T02:56:32;5.80;99.90
21259;DHT22;10787;53.364;-1.480;2024-03-08T02:59:19;5.80;99.90
21259;DHT22;10787;53.364;-1.480;2024-03-08T03:02:03;5.80;99.90
21259;DHT22;10787;53.364;-1.480;2024-03-08T03:04:47;5.80;99.90
21259;DHT22;10787;53.364;-1.480;2024-03-08T03:07:33;5.80;99.90
21259;DHT22;10787;53.364;-1.480;2024-03-08T03:10:20;5.80;99.90
21259;DHT22;10787;53.364;-1.480;2024-03-08T03:13:06;5.80;99.90
21259;DHT22;10787;53.364;-1.480;2024-03-08T03:15:50;5.80;99.90
21259;DHT22;10787;53.364;-1.480;2024-03-08T03:18:35;5.80;99.90
21259;DHT22;10787;53.364;-1.480;2024-03-08T03:21:20;5.80;99.90
21259;DHT22;10787;53.364;-1.480;2024-03-08T03:24:05;5.80;99.90
21259;DHT22;10787;53.364;-1.480;2024-03-08T03:26:54;5.80;99.90
21259;DHT22;10787;53.364;-1.480;2024-03-08T03:29:39;5.80;99.90
21259;DHT22;10787;53.364;-1.480;2024-03-08T03:32:26;5.80;99.90
21259;DHT22;10787;53.364;-1.480;2024-03-08T03:35:10;5.80;99.90
21259;DHT22;10787;53.364;-1.480;2024-03-08T03:37:55;5.80;99.90
21259;DHT22;10787;53.364;-1.480;2024-03-08T03:40:49;5.90;99.90
21259;DHT22;10787;53.364;-1.480;2024-03-08T03:43:37;5.90;99.90
21259;DHT22;10787;53.364;-1.480;2024-03-08T03:46:24;5.90;99.90
21259;DHT22;10787;53.364;-1.480;2024-03-08T03:49:10;5.90;99.90
21259;DHT22;10787;53.364;-1.480;2024-03-08T03:51:54;5.90;99.90
21259;DHT22;10787;53.364;-1.480;2024-03-08T03:54:38;5.90;99.90
21259;DHT22;10787;53.364;-1.480;2024-03-08T03:57:22;5.90;99.90
21259;DHT22;10787;53.364;-1.480;2024-03-08T04:00:07;5.90;99.90
21259;DHT22;10787;53.364;-1.480;2024-03-08T04:02:54;5.90;99.90
21259;DHT22;10787;53.364;-1.480;2024-03-08T04:05:43;5.90;99.90
21259;DHT22;10787;53.364;-1.480;2024-03-08T04:08:27;5.90;99.90
21259;DHT22;10787;53.364;-1.480;2024-03-08T04:11:11;5.90;99.90
21259;DHT22;10787;53.364;-1.480;2024-03-08T04:13:56;5.90;99.90
21259;DHT22;10787;53.364;-1.480;2024-03-08T04:16:40;5.90;99.90
21259;DHT22;10787;53.364;-1.480;2024-03-08T04:19:24;5.90;99.90
21259;DHT22;10787;53.364;-1.480;2024-03-08T04:22:10;5.90;99.90
21259;DHT22;10787;53.364;-1.480;2024-03-08T04:24:54;5.90;99.90
21259;DHT22;10787;53.364;-1.480;2024-03-08T04:27:38;5.90;99.90
21259;DHT22;10787;53.364;-1.480;2024-03-08T04:30:23;5.90;99.90
21259;DHT22;10787;53.364;-1.480;2024-03-08T04:33:08;5.90;99.90
21259;DHT22;10787;53.364;-1.480;2024-03-08T04:35:52;6.00;99.90
21259;DHT22;10787;53.364;-1.480;2024-03-08T04:38:37;6.00;99.90
21259;DHT22;10787;53.364;-1.480;2024-03-08T04:41:25;5.90;99.90
21259;DHT22;10787;53.364;-1.480;2024-03-08T04:44:09;5.90;99.90
21259;DHT22;10787;53.364;-1.480;2024-03-08T04:46:54;6.00;99.90
21259;DHT22;10787;53.364;-1.480;2024-03-08T04:49:39;6.00;99.90
21259;DHT22;10787;53.364;-1.480;2024-03-08T04:52:23;6.00;99.90
21259;DHT22;10787;53.364;-1.480;2024-03-08T04:55:08;6.00;99.90
21259;DHT22;10787;53.364;-1.480;2024-03-08T04:57:53;6.00;99.90
21259;DHT22;10787;53.364;-1.480;2024-03-08T05:00:52;6.00;99.90
21259;DHT22;10787;53.364;-1.480;2024-03-08T05:03:37;6.00;99.90
21259;DHT22;10787;53.364;-1.480;2024-03-08T05:06:22;6.00;99.90
21259;DHT22;10787;53.364;-1.480;2024-03-08T05:09:07;6.00;99.90
21259;DHT22;10787;53.364;-1.480;2024-03-08T05:12:01;6.00;99.90
21259;DHT22;10787;53.364;-1.480;2024-03-08T05:14:46;6.00;99.90
21259;DHT22;10787;53.364;-1.480;2024-03-08T05:17:33;6.00;99.90
21259;DHT22;10787;53.364;-1.480;2024-03-08T05:20:18;6.00;99.90
21259;DHT22;10787;53.364;-1.480;2024-03-08T05:23:03;5.90;99.90
21259;DHT22;10787;53.364;-1.480;2024-03-08T05:25:49;6.00;99.90
21259;DHT22;10787;53.364;-1.480;2024-03-08T05:28:33;6.00;99.90
21259;DHT22;10787;53.364;-1.480;2024-03-08T05:31:19;6.00;99.90
21259;DHT22;10787;53.364;-1.480;2024-03-08T05:34:06;6.00;99.90
21259;DHT22;10787;53.364;-1.480;2024-03-08T05:36:54;6.00;99.90
21259;DHT22;10787;53.364;-1.480;2024-03-08T05:39:38;6.00;99.90
21259;DHT22;10787;53.364;-1.480;2024-03-08T05:42:23;6.00;99.90
21259;DHT22;10787;53.364;-1.480;2024-03-08T05:45:07;6.00;99.90
21259;DHT22;10787;53.364;-1.480;2024-03-08T05:47:52;6.00;99.90
21259;DHT22;10787;53.364;-1.480;2024-03-08T05:50:36;6.00;99.90
21259;DHT22;10787;53.364;-1.480;2024-03-08T05:53:21;6.00;99.90
21259;DHT22;10787;53.364;-1.480;2024-03-08T05:56:05;6.00;99.90
21259;DHT22;10787;53.364;-1.480;2024-03-08T05:58:49;6.00;99.90
21259;DHT22;10787;53.364;-1.480;2024-03-08T06:01:34;6.00;99.90
21259;DHT22;10787;53.364;-1.480;2024-03-08T06:04:20;6.00;99.90
21259;DHT22;10787;53.364;-1.480;2024-03-08T06:07:04;6.00;99.90
21259;DHT22;10787;53.364;-1.480;2024-03-08T06:09:48;6.00;99.90
21259;DHT22;10787;53.364;-1.480;2024-03-08T06:12:36;6.00;99.90
21259;DHT22;10787;53.364;-1.480;2024-03-08T06:15:25;5.90;99.90
21259;DHT22;10787;53.364;-1.480;2024-03-08T06:18:10;5.90;99.90
21259;DHT22;10787;53.364;-1.480;2024-03-08T06:20:55;5.90;99.90
21259;DHT22;10787;53.364;-1.480;2024-03-08T06:23:40;6.00;99.90
21259;DHT22;10787;53.364;-1.480;2024-03-08T06:26:25;6.00;99.90
21259;DHT22;10787;53.364;-1.480;2024-03-08T06:29:12;6.00;99.90
21259;DHT22;10787;53.364;-1.480;2024-03-08T06:31:57;6.00;99.90
21259;DHT22;10787;53.364;-1.480;2024-03-08T06:34:41;6.00;99.90
21259;DHT22;10787;53.364;-1.480;2024-03-08T06:37:26;6.10;99.90
21259;DHT22;10787;53.364;-1.480;2024-03-08T06:40:11;6.30;99.90
21259;DHT22;10787;53.364;-1.480;2024-03-08T06:42:57;6.50;99.90
21259;DHT22;10787;53.364;-1.480;2024-03-08T06:45:42;6.60;99.90
21259;DHT22;10787;53.364;-1.480;2024-03-08T06:48:32;6.60;99.90
21259;DHT22;10787;53.364;-1.480;2024-03-08T06:51:17;6.50;99.90
21259;DHT22;10787;53.364;-1.480;2024-03-08T06:54:02;6.50;99.90
21259;DHT22;10787;53.364;-1.480;2024-03-08T06:56:52;6.40;99.90
21259;DHT22;10787;53.364;-1.480;2024-03-08T06:59:37;6.40;99.90
21259;DHT22;10787;53.364;-1.480;2024-03-08T07:02:22;6.30;99.90
21259;DHT22;10787;53.364;-1.480;2024-03-08T07:05:08;6.20;99.90
21259;DHT22;10787;53.364;-1.480;2024-03-08T07:07:54;6.20;99.90
21259;DHT22;10787;53.364;-1.480;2024-03-08T07:10:39;6.10;99.90
21259;DHT22;10787;53.364;-1.480;2024-03-08T07:13:25;6.10;99.90
21259;DHT22;10787;53.364;-1.480;2024-03-08T07:16:11;6.10;99.90
21259;DHT22;10787;53.364;-1.480;2024-03-08T07:18:56;6.00;99.90
21259;DHT22;10787;53.364;-1.480;2024-03-08T07:21:43;6.00;99.90
21259;DHT22;10787;53.364;-1.480;2024-03-08T07:24:28;6.00;99.90
21259;DHT22;10787;53.364;-1.480;2024-03-08T07:27:52;6.00;99.90
21259;DHT22;10787;53.364;-1.480;2024-03-08T07:30:37;6.00;99.90
21259;DHT22;10787;53.364;-1.480;2024-03-08T07:33:27;6.00;99.90
21259;DHT22;10787;53.364;-1.480;2024-03-08T07:36:11;6.00;99.90
21259;DHT22;10787;53.364;-1.480;2024-03-08T07:38:56;6.00;99.90
21259;DHT22;10787;53.364;-1.480;2024-03-08T07:41:41;6.00;99.90
21259;DHT22;10787;53.364;-1.480;2024-03-08T07:44:26;6.00;99.90
21259;DHT22;10787;53.364;-1.480;2024-03-08T07:47:10;6.00;99.90
21259;DHT22;10787;53.364;-1.480;2024-03-08T07:49:55;6.00;99.90
21259;DHT22;10787;53.364;-1.480;2024-03-08T07:52:39;6.10;99.90
21259;DHT22;10787;53.364;-1.480;2024-03-08T07:55:25;6.10;99.90
21259;DHT22;10787;53.364;-1.480;2024-03-08T07:58:10;6.10;99.90
21259;DHT22;10787;53.364;-1.480;2024-03-08T08:00:55;6.20;99.90
21259;DHT22;10787;53.364;-1.480;2024-03-08T08:03:40;6.20;99.90
21259;DHT22;10787;53.364;-1.480;2024-03-08T08:06:26;6.20;99.90
21259;DHT22;10787;53.364;-1.480;2024-03-08T08:09:10;6.20;99.90
21259;DHT22;10787;53.364;-1.480;2024-03-08T08:11:58;6.30;99.90
21259;DHT22;10787;53.364;-1.480;2024-03-08T08:14:42;6.30;99.90
21259;DHT22;10787;53.364;-1.480;2024-03-08T08:17:26;6.30;99.90
21259;DHT22;10787;53.364;-1.480;2024-03-08T08:20:11;6.40;99.90
21259;DHT22;10787;53.364;-1.480;2024-03-08T08:22:57;6.40;99.90
21259;DHT22;10787;53.364;-1.480;2024-03-08T08:25:46;6.40;99.90
21259;DHT22;10787;53.364;-1.480;2024-03-08T08:28:30;6.40;99.90
21259;DHT22;10787;53.364;-1.480;2024-03-08T08:31:15;6.40;99.90
21259;DHT22;10787;53.364;-1.480;2024-03-08T08:33:59;6.40;99.90
21259;DHT22;10787;53.364;-1.480;2024-03-08T08:36:43;6.40;99.90
21259;DHT22;10787;53.364;-1.480;2024-03-08T08:39:29;6.50;99.90
21259;DHT22;10787;53.364;-1.480;2024-03-08T08:42:13;6.50;99.90
21259;DHT22;10787;53.364;-1.480;2024-03-08T08:44:58;6.60;99.90
21259;DHT22;10787;53.364;-1.480;2024-03-08T08:47:43;6.70;99.90
21259;DHT22;10787;53.364;-1.480;2024-03-08T08:50:27;6.70;99.90
21259;DHT22;10787;53.364;-1.480;2024-03-08T08:53:12;6.70;99.90
21259;DHT22;10787;53.364;-1.480;2024-03-08T08:55:58;6.70;99.90
21259;DHT22;10787;53.364;-1.480;2024-03-08T08:58:42;6.80;99.90
21259;DHT22;10787;53.364;-1.480;2024-03-08T09:01:27;6.80;99.90
21259;DHT22;10787;53.364;-1.480;2024-03-08T09:04:12;6.90;99.90
21259;DHT22;10787;53.364;-1.480;2024-03-08T09:06:57;6.90;99.90
21259;DHT22;10787;53.364;-1.480;2024-03-08T09:09:42;6.90;99.90
21259;DHT22;10787;53.364;-1.480;2024-03-08T09:12:27;6.90;99.90
21259;DHT22;10787;53.364;-1.480;2024-03-08T09:15:11;6.90;99.90
21259;DHT22;10787;53.364;-1.480;2024-03-08T09:17:56;7.00;99.90
21259;DHT22;10787;53.364;-1.480;2024-03-08T09:20:41;7.10;99.90
21259;DHT22;10787;53.364;-1.480;2024-03-08T09:23:25;7.10;99.90
21259;DHT22;10787;53.364;-1.480;2024-03-08T09:26:13;7.20;99.90
21259;DHT22;10787;53.364;-1.480;2024-03-08T09:28:59;7.20;99.90
21259;DHT22;10787;53.364;-1.480;2024-03-08T09:31:44;7.30;99.90
21259;DHT22;10787;53.364;-1.480;2024-03-08T09:34:30;7.30;99.90
21259;DHT22;10787;53.364;-1.480;2024-03-08T09:37:14;7.40;99.90
21259;DHT22;10787;53.364;-1.480;2024-03-08T09:39:59;7.50;99.90
21259;DHT22;10787;53.364;-1.480;2024-03-08T09:42:43;7.60;99.90
21259;DHT22;10787;53.364;-1.480;2024-03-08T09:45:32;7.60;99.90
21259;DHT22;10787;53.364;-1.480;2024-03-08T09:48:20;7.70;99.90
21259;DHT22;10787;53.364;-1.480;2024-03-08T09:51:04;7.70;99.90
21259;DHT22;10787;53.364;-1.480;2024-03-08T09:53:49;7.80;99.90
21259;DHT22;10787;53.364;-1.480;2024-03-08T09:56:33;7.80;99.90
21259;DHT22;10787;53.364;-1.480;2024-03-08T09:59:18;7.80;99.90
21259;DHT22;10787;53.364;-1.480;2024-03-08T10:02:14;7.90;99.90
21259;DHT22;10787;53.364;-1.480;2024-03-08T10:04:59;7.90;99.90
21259;DHT22;10787;53.364;-1.480;2024-03-08T10:07:43;8.00;99.90
21259;DHT22;10787;53.364;-1.480;2024-03-08T10:10:28;8.00;99.90
21259;DHT22;10787;53.364;-1.480;2024-03-08T10:13:13;7.90;99.90
21259;DHT22;10787;53.364;-1.480;2024-03-08T10:15:57;7.90;99.90
21259;DHT22;10787;53.364;-1.480;2024-03-08T10:18:41;7.90;99.90
21259;DHT22;10787;53.364;-1.480;2024-03-08T10:21:26;7.90;99.90
21259;DHT22;10787;53.364;-1.480;2024-03-08T10:24:11;7.90;99.90
21259;DHT22;10787;53.364;-1.480;2024-03-08T10:27:01;7.80;99.90
21259;DHT22;10787;53.364;-1.480;2024-03-08T10:29:48;7.80;99.90
21259;DHT22;10787;53.364;-1.480;2024-03-08T10:32:34;7.80;99.90
21259;DHT22;10787;53.364;-1.480;2024-03-08T10:35:18;7.80;99.90
21259;DHT22;10787;53.364;-1.480;2024-03-08T10:38:05;7.80;99.90
21259;DHT22;10787;53.364;-1.480;2024-03-08T10:40:53;7.70;99.90
21259;DHT22;10787;53.364;-1.480;2024-03-08T10:46:53;7.70;99.90
21259;DHT22;10787;53.364;-1.480;2024-03-08T10:50:15;7.60;99.90
21259;DHT22;10787;53.364;-1.480;2024-03-08T10:53:05;7.50;99.90
21259;DHT22;10787;53.364;-1.480;2024-03-08T10:55:50;7.60;99.90
21259;DHT22;10787;53.364;-1.480;2024-03-08T10:58:37;7.60;99.90
21259;DHT22;10787;53.364;-1.480;2024-03-08T11:01:22;7.70;99.90
21259;DHT22;10787;53.364;-1.480;2024-03-08T11:04:10;7.70;99.90
21259;DHT22;10787;53.364;-1.480;2024-03-08T11:07:01;7.60;99.90
21259;DHT22;10787;53.364;-1.480;2024-03-08T11:09:52;7.60;99.90
21259;DHT22;10787;53.364;-1.480;2024-03-08T11:12:39;7.60;99.90
21259;DHT22;10787;53.364;-1.480;2024-03-08T11:15:24;7.60;99.90
21259;DHT22;10787;53.364;-1.480;2024-03-08T11:18:08;7.80;99.90
21259;DHT22;10787;53.364;-1.480;2024-03-08T11:20:54;7.90;99.90
21259;DHT22;10787;53.364;-1.480;2024-03-08T11:23:39;8.10;99.90
21259;DHT22;10787;53.364;-1.480;2024-03-08T11:26:29;8.20;99.90
21259;DHT22;10787;53.364;-1.480;2024-03-08T11:29:34;8.10;99.90
21259;DHT22;10787;53.364;-1.480;2024-03-08T11:32:27;8.20;99.90
21259;DHT22;10787;53.364;-1.480;2024-03-08T11:35:22;8.20;99.90
21259;DHT22;10787;53.364;-1.480;2024-03-08T11:38:10;8.10;99.90
21259;DHT22;10787;53.364;-1.480;2024-03-08T11:40:56;8.10;99.90
21259;DHT22;10787;53.364;-1.480;2024-03-08T11:43:41;7.90;99.90
21259;DHT22;10787;53.364;-1.480;2024-03-08T11:46:25;7.80;99.90
21259;DHT22;10787;53.364;-1.480;2024-03-08T11:49:12;7.70;99.90
21259;DHT22;10787;53.364;-1.480;2024-03-08T11:51:57;7.70;99.90
21259;DHT22;10787;53.364;-1.480;2024-03-08T11:54:43;7.70;99.90
21259;DHT22;10787;53.364;-1.480;2024-03-08T11:57:31;7.90;99.90
21259;DHT22;10787;53.364;-1.480;2024-03-08T12:00:18;8.20;99.90
21259;DHT22;10787;53.364;-1.480;2024-03-08T12:03:10;8.50;99.90
21259;DHT22;10787;53.364;-1.480;2024-03-08T12:05:57;8.60;99.90
21259;DHT22;10787;53.364;-1.480;2024-03-08T12:08:43;8.80;99.90
21259;DHT22;10787;53.364;-1.480;2024-03-08T12:11:28;8.80;99.90
21259;DHT22;10787;53.364;-1.480;2024-03-08T12:14:12;8.90;99.90
21259;DHT22;10787;53.364;-1.480;2024-03-08T12:16:57;9.00;99.90
21259;DHT22;10787;53.364;-1.480;2024-03-08T12:19:46;9.20;99.90
21259;DHT22;10787;53.364;-1.480;2024-03-08T12:22:31;9.20;99.90
21259;DHT22;10787;53.364;-1.480;2024-03-08T12:25:15;9.20;99.90
21259;DHT22;10787;53.364;-1.480;2024-03-08T12:28:11;9.30;99.90
21259;DHT22;10787;53.364;-1.480;2024-03-08T12:31:00;9.70;99.90
21259;DHT22;10787;53.364;-1.480;2024-03-08T12:33:54;10.60;99.90
21259;DHT22;10787;53.364;-1.480;2024-03-08T12:36:50;11.40;99.90
21259;DHT22;10787;53.364;-1.480;2024-03-08T12:39:40;11.80;99.90
21259;DHT22;10787;53.364;-1.480;2024-03-08T12:42:24;12.00;99.90
21259;DHT22;10787;53.364;-1.480;2024-03-08T12:45:09;12.40;99.90
21259;DHT22;10787;53.364;-1.480;2024-03-08T12:47:55;12.50;99.90
21259;DHT22;10787;53.364;-1.480;2024-03-08T12:50:39;12.10;99.90
21259;DHT22;10787;53.364;-1.480;2024-03-08T12:53:23;11.60;99.90
21259;DHT22;10787;53.364;-1.480;2024-03-08T12:56:09;11.10;99.90
21259;DHT22;10787;53.364;-1.480;2024-03-08T12:58:53;11.00;99.90
21259;DHT22;10787;53.364;-1.480;2024-03-08T13:01:38;11.10;99.90
21259;DHT22;10787;53.364;-1.480;2024-03-08T13:04:22;11.20;99.90
21259;DHT22;10787;53.364;-1.480;2024-03-08T13:07:06;11.40;99.90
21259;DHT22;10787;53.364;-1.480;2024-03-08T13:09:50;11.60;99.90
21259;DHT22;10787;53.364;-1.480;2024-03-08T13:12:34;12.20;99.90
21259;DHT22;10787;53.364;-1.480;2024-03-08T13:15:21;12.70;99.90
21259;DHT22;10787;53.364;-1.480;2024-03-08T13:18:06;12.70;99.90
21259;DHT22;10787;53.364;-1.480;2024-03-08T13:20:53;12.50;99.90
21259;DHT22;10787;53.364;-1.480;2024-03-08T13:23:39;11.80;99.90
21259;DHT22;10787;53.364;-1.480;2024-03-08T13:26:24;11.30;99.90
21259;DHT22;10787;53.364;-1.480;2024-03-08T13:29:09;10.90;99.90
21259;DHT22;10787;53.364;-1.480;2024-03-08T13:31:53;10.40;99.90
21259;DHT22;10787;53.364;-1.480;2024-03-08T13:34:43;10.10;99.90
21259;DHT22;10787;53.364;-1.480;2024-03-08T13:37:35;9.80;99.90
21259;DHT22;10787;53.364;-1.480;2024-03-08T13:40:19;9.70;99.90
21259;DHT22;10787;53.364;-1.480;2024-03-08T13:43:04;9.50;99.90
21259;DHT22;10787;53.364;-1.480;2024-03-08T13:45:49;9.40;99.90
21259;DHT22;10787;53.364;-1.480;2024-03-08T13:48:33;9.40;99.90
21259;DHT22;10787;53.364;-1.480;2024-03-08T13:51:18;9.30;99.90
21259;DHT22;10787;53.364;-1.480;2024-03-08T13:54:04;9.30;99.90
21259;DHT22;10787;53.364;-1.480;2024-03-08T13:56:51;9.30;99.90
21259;DHT22;10787;53.364;-1.480;2024-03-08T13:59:38;9.20;99.90
21259;DHT22;10787;53.364;-1.480;2024-03-08T14:02:22;9.10;99.90
21259;DHT22;10787;53.364;-1.480;2024-03-08T14:05:09;8.90;99.90
21259;DHT22;10787;53.364;-1.480;2024-03-08T14:07:55;8.80;99.90
21259;DHT22;10787;53.364;-1.480;2024-03-08T14:10:39;8.80;99.90
21259;DHT22;10787;53.364;-1.480;2024-03-08T14:13:24;8.70;99.90
21259;DHT22;10787;53.364;-1.480;2024-03-08T14:16:09;8.70;99.90
21259;DHT22;10787;53.364;-1.480;2024-03-08T14:18:54;8.80;99.90
21259;DHT22;10787;53.364;-1.480;2024-03-08T14:21:38;8.80;99.90
21259;DHT22;10787;53.364;-1.480;2024-03-08T14:24:23;8.90;99.90
21259;DHT22;10787;53.364;-1.480;2024-03-08T14:27:08;9.00;99.90
21259;DHT22;10787;53.364;-1.480;2024-03-08T14:29:53;9.30;99.90
21259;DHT22;10787;53.364;-1.480;2024-03-08T14:32:40;10.30;99.90
21259;DHT22;10787;53.364;-1.480;2024-03-08T14:35:26;12.10;99.90
21259;DHT22;10787;53.364;-1.480;2024-03-08T14:38:10;13.20;99.90
21259;DHT22;10787;53.364;-1.480;2024-03-08T14:40:55;13.10;99.90
21259;DHT22;10787;53.364;-1.480;2024-03-08T14:43:41;12.30;99.90
21259;DHT22;10787;53.364;-1.480;2024-03-08T14:46:28;11.70;99.90
21259;DHT22;10787;53.364;-1.480;2024-03-08T14:49:13;11.20;99.90
21259;DHT22;10787;53.364;-1.480;2024-03-08T14:51:57;10.70;99.90
21259;DHT22;10787;53.364;-1.480;2024-03-08T14:54:42;10.30;99.90
21259;DHT22;10787;53.364;-1.480;2024-03-08T14:57:27;10.00;99.90
21259;DHT22;10787;53.364;-1.480;2024-03-08T15:00:12;9.80;99.90
21259;DHT22;10787;53.364;-1.480;2024-03-08T15:03:01;9.70;99.90
21259;DHT22;10787;53.364;-1.480;2024-03-08T15:05:46;9.60;99.90
21259;DHT22;10787;53.364;-1.480;2024-03-08T15:08:32;9.90;99.90
21259;DHT22;10787;53.364;-1.480;2024-03-08T15:11:16;10.50;99.90
21259;DHT22;10787;53.364;-1.480;2024-03-08T15:14:09;10.90;99.90
21259;DHT22;10787;53.364;-1.480;2024-03-08T15:16:55;10.80;99.90
21259;DHT22;10787;53.364;-1.480;2024-03-08T15:19:39;10.60;99.90
21259;DHT22;10787;53.364;-1.480;2024-03-08T15:22:24;10.40;99.90
21259;DHT22;10787;53.364;-1.480;2024-03-08T15:25:08;10.20;99.90
21259;DHT22;10787;53.364;-1.480;2024-03-08T15:27:55;9.90;99.90
21259;DHT22;10787;53.364;-1.480;2024-03-08T15:30:42;9.70;99.90
21259;DHT22;10787;53.364;-1.480;2024-03-08T15:33:37;9.50;99.90
21259;DHT22;10787;53.364;-1.480;2024-03-08T15:36:27;9.40;99.90
21259;DHT22;10787;53.364;-1.480;2024-03-08T15:39:17;9.50;99.90
21259;DHT22;10787;53.364;-1.480;2024-03-08T15:42:04;9.70;99.90
21259;DHT22;10787;53.364;-1.480;2024-03-08T15:44:49;9.70;99.90
21259;DHT22;10787;53.364;-1.480;2024-03-08T15:47:33;9.50;99.90
21259;DHT22;10787;53.364;-1.480;2024-03-08T15:50:17;9.20;99.90
21259;DHT22;10787;53.364;-1.480;2024-03-08T15:53:02;9.10;99.90
21259;DHT22;10787;53.364;-1.480;2024-03-08T15:55:48;9.30;99.90
21259;DHT22;10787;53.364;-1.480;2024-03-08T15:58:32;9.50;99.90
21259;DHT22;10787;53.364;-1.480;2024-03-08T16:01:21;9.50;99.90
21259;DHT22;10787;53.364;-1.480;2024-03-08T16:04:06;9.30;99.90
21259;DHT22;10787;53.364;-1.480;2024-03-08T16:06:51;9.20;99.90
21259;DHT22;10787;53.364;-1.480;2024-03-08T16:09:35;9.30;99.90
21259;DHT22;10787;53.364;-1.480;2024-03-08T16:12:19;9.80;99.90
21259;DHT22;10787;53.364;-1.480;2024-03-08T16:15:04;10.50;99.90
21259;DHT22;10787;53.364;-1.480;2024-03-08T16:17:49;11.70;99.90
21259;DHT22;10787;53.364;-1.480;2024-03-08T16:20:34;12.60;99.90
21259;DHT22;10787;53.364;-1.480;2024-03-08T16:23:19;12.40;99.90
21259;DHT22;10787;53.364;-1.480;2024-03-08T16:26:03;12.10;99.90
21259;DHT22;10787;53.364;-1.480;2024-03-08T16:28:49;11.40;99.90
21259;DHT22;10787;53.364;-1.480;2024-03-08T16:31:33;10.60;99.90
21259;DHT22;10787;53.364;-1.480;2024-03-08T16:34:18;10.10;99.90
21259;DHT22;10787;53.364;-1.480;2024-03-08T16:37:02;9.90;99.90
21259;DHT22;10787;53.364;-1.480;2024-03-08T16:39:46;9.90;99.90
21259;DHT22;10787;53.364;-1.480;2024-03-08T16:42:31;9.80;99.90
21259;DHT22;10787;53.364;-1.480;2024-03-08T16:45:15;9.50;99.90
21259;DHT22;10787;53.364;-1.480;2024-03-08T16:47:59;9.20;99.90
21259;DHT22;10787;53.364;-1.480;2024-03-08T16:50:43;9.00;99.90
21259;DHT22;10787;53.364;-1.480;2024-03-08T16:53:29;8.60;99.90
21259;DHT22;10787;53.364;-1.480;2024-03-08T16:56:30;8.50;99.90
21259;DHT22;10787;53.364;-1.480;2024-03-08T16:59:15;8.30;99.90
21259;DHT22;10787;53.364;-1.480;2024-03-08T17:01:59;8.20;99.90
21259;DHT22;10787;53.364;-1.480;2024-03-08T17:04:44;8.10;99.90
21259;DHT22;10787;53.364;-1.480;2024-03-08T17:07:29;7.90;99.90
21259;DHT22;10787;53.364;-1.480;2024-03-08T17:10:16;7.80;99.90
21259;DHT22;10787;53.364;-1.480;2024-03-08T17:13:03;7.60;99.90
21259;DHT22;10787;53.364;-1.480;2024-03-08T17:15:49;7.50;99.90
21259;DHT22;10787;53.364;-1.480;2024-03-08T17:18:33;7.50;99.90
21259;DHT22;10787;53.364;-1.480;2024-03-08T17:21:17;7.40;99.90
21259;DHT22;10787;53.364;-1.480;2024-03-08T17:24:02;7.30;99.90
21259;DHT22;10787;53.364;-1.480;2024-03-08T17:26:48;7.20;99.90
21259;DHT22;10787;53.364;-1.480;2024-03-08T17:29:33;7.10;99.90